Maple Lake, MN (55358)

6:52 PM CST on December 18, 2014 (GMT -0600)
Albion Township | Change Station
CLOSE
Current Station
Personal Weather Station
Location: Maple Lake, MN
Elevation: 1060 ft
Nearby Weather Stations

Elev 1060 ft 45.20 °N, 94.02 °W | Updated 7 minutes ago

Mostly Cloudy
Mostly Cloudy
16.8 °F
Feels Like 17 °F
N
0.0
Wind Variable Wind from SSW
Gusts 0.0 mph

Today
High -- | Low -- °F
--% Chance of Precip.
Yesterday
High -- | Low -- °F
Precip. -- in
7:50 AM 4:35 PM
Waning Crescent, 11% visible
Pressure 30.25 in
Visibility 10.0 miles
Clouds Mostly Cloudy 1600 ft
Mostly Cloudy 7500 ft
Windchill 17 °F
Dew Point 14 °F
Humidity 90%
Rainfall 0.00 in
Snow Depth Not available.
UV 0 out of 12
Pollen .10 out of 12
Air Quality Not available.
Flu Activity Not available.
METAR KMGG 190036Z AUTO 00000KT 10SM BKN016 BKN075 M07/M09 A3025 RMK AO2 T10721088

More Conditions Fewer Conditions

Pressure 30.25 in
Visibility 10.0 miles
Clouds Mostly Cloudy 1600 ft
Mostly Cloudy 7500 ft
Windchill 17 °F
Dew Point 14 °F
Humidity 90%
Rainfall 0.00 in
Snow Depth Not available.
UV 0 out of 12
Pollen .10 out of 12
Air Quality Not available.
Flu Activity Not available.
METAR KMGG 190036Z AUTO 00000KT 10SM BKN016 BKN075 M07/M09 A3025 RMK AO2 T10721088

More Conditions Fewer Conditions

10-Day Weather Forecast

Almanac

Astronomy

Dec. 18, 2014 Rise Set
Actual Time
Civil Twilight
Nautical Twilight
Astronomical Twilight
Moon
Length of Visible Light
Length of Day
Tomorrow will be .
, % of the Moon is Illuminated

Today's Extremes

State Highs State Lows

Community

WunderPhotos

Upload Photos

1,779,016 photos uploaded!

WunderBlogs® & News

Nearby

Air Quality

  Air Quality AQ Index Pollutant
Not available.

Snow Depth

Station Depth Elevation

Earthquake Activity

City Distance Mag. Time & Date
Minimum magnitude displayed is 2.5.

Coastal Water Temperatures

Place Temperature

Nearby Weather Stations